sensor_id;sensor_type;location;lat;lon;timestamp;temperature;humidity
41720;DHT22;27405;53.316;-6.294;2023-07-28T00:00:59;17.40;99.90
41720;DHT22;27405;53.316;-6.294;2023-07-28T00:03:24;17.30;99.90
41720;DHT22;27405;53.316;-6.294;2023-07-28T00:05:50;17.30;99.90
41720;DHT22;27405;53.316;-6.294;2023-07-28T00:08:16;17.20;99.90
41720;DHT22;27405;53.316;-6.294;2023-07-28T00:10:42;17.20;99.90
41720;DHT22;27405;53.316;-6.294;2023-07-28T00:13:08;17.10;99.90
41720;DHT22;27405;53.316;-6.294;2023-07-28T00:15:34;17.10;99.90
41720;DHT22;27405;53.316;-6.294;2023-07-28T00:18:00;17.00;99.90
41720;DHT22;27405;53.316;-6.294;2023-07-28T00:20:27;17.00;99.90
41720;DHT22;27405;53.316;-6.294;2023-07-28T00:22:53;16.90;99.90
41720;DHT22;27405;53.316;-6.294;2023-07-28T00:25:19;16.90;99.90
41720;DHT22;27405;53.316;-6.294;2023-07-28T00:27:44;16.90;99.90
41720;DHT22;27405;53.316;-6.294;2023-07-28T00:30:11;16.80;99.90
41720;DHT22;27405;53.316;-6.294;2023-07-28T00:32:37;16.80;99.90
41720;DHT22;27405;53.316;-6.294;2023-07-28T00:35:03;16.80;99.90
41720;DHT22;27405;53.316;-6.294;2023-07-28T00:37:29;16.70;99.90
41720;DHT22;27405;53.316;-6.294;2023-07-28T00:39:55;16.70;99.90
41720;DHT22;27405;53.316;-6.294;2023-07-28T00:42:20;16.60;99.90
41720;DHT22;27405;53.316;-6.294;2023-07-28T00:44:46;16.60;99.90
41720;DHT22;27405;53.316;-6.294;2023-07-28T00:47:12;16.60;99.90
41720;DHT22;27405;53.316;-6.294;2023-07-28T00:49:40;16.50;99.90
41720;DHT22;27405;53.316;-6.294;2023-07-28T00:52:07;16.50;99.90
41720;DHT22;27405;53.316;-6.294;2023-07-28T00:54:33;16.60;99.90
41720;DHT22;27405;53.316;-6.294;2023-07-28T00:57:00;16.50;99.90
41720;DHT22;27405;53.316;-6.294;2023-07-28T00:59:27;16.50;99.90
41720;DHT22;27405;53.316;-6.294;2023-07-28T01:01:52;16.60;99.90
41720;DHT22;27405;53.316;-6.294;2023-07-28T01:04:18;16.50;99.90
41720;DHT22;27405;53.316;-6.294;2023-07-28T01:07:13;16.50;99.90
41720;DHT22;27405;53.316;-6.294;2023-07-28T01:10:02;16.50;99.90
41720;DHT22;27405;53.316;-6.294;2023-07-28T01:12:31;16.40;99.90
41720;DHT22;27405;53.316;-6.294;2023-07-28T01:14:56;16.40;99.90
41720;DHT22;27405;53.316;-6.294;2023-07-28T01:17:22;16.40;99.90
41720;DHT22;27405;53.316;-6.294;2023-07-28T01:19:51;16.40;99.90
41720;DHT22;27405;53.316;-6.294;2023-07-28T01:27:35;16.30;99.90
41720;DHT22;27405;53.316;-6.294;2023-07-28T01:30:02;16.30;99.90
41720;DHT22;27405;53.316;-6.294;2023-07-28T01:32:28;16.20;99.90
41720;DHT22;27405;53.316;-6.294;2023-07-28T01:34:54;16.20;99.90
41720;DHT22;27405;53.316;-6.294;2023-07-28T01:37:19;16.20;99.90
41720;DHT22;27405;53.316;-6.294;2023-07-28T01:39:45;16.20;99.90
41720;DHT22;27405;53.316;-6.294;2023-07-28T01:42:11;16.20;99.90
41720;DHT22;27405;53.316;-6.294;2023-07-28T01:44:36;16.20;99.90
41720;DHT22;27405;53.316;-6.294;2023-07-28T01:47:02;16.20;99.90
41720;DHT22;27405;53.316;-6.294;2023-07-28T01:49:28;16.20;99.90
41720;DHT22;27405;53.316;-6.294;2023-07-28T01:51:53;16.10;99.90
41720;DHT22;27405;53.316;-6.294;2023-07-28T01:54:19;16.10;99.90
41720;DHT22;27405;53.316;-6.294;2023-07-28T01:56:45;16.20;99.90
41720;DHT22;27405;53.316;-6.294;2023-07-28T01:59:10;16.10;99.90
41720;DHT22;27405;53.316;-6.294;2023-07-28T02:01:36;16.10;99.90
41720;DHT22;27405;53.316;-6.294;2023-07-28T02:04:02;16.10;99.90
41720;DHT22;27405;53.316;-6.294;2023-07-28T02:06:28;16.10;99.90
41720;DHT22;27405;53.316;-6.294;2023-07-28T02:08:54;16.10;99.90
41720;DHT22;27405;53.316;-6.294;2023-07-28T02:11:20;16.10;99.90
41720;DHT22;27405;53.316;-6.294;2023-07-28T02:13:46;16.10;99.90
41720;DHT22;27405;53.316;-6.294;2023-07-28T02:16:11;16.10;99.90
41720;DHT22;27405;53.316;-6.294;2023-07-28T02:18:37;16.10;99.90
41720;DHT22;27405;53.316;-6.294;2023-07-28T02:21:02;16.10;99.90
41720;DHT22;27405;53.316;-6.294;2023-07-28T02:23:28;16.10;99.90
41720;DHT22;27405;53.316;-6.294;2023-07-28T02:25:54;16.00;99.90
41720;DHT22;27405;53.316;-6.294;2023-07-28T02:28:19;16.00;99.90
41720;DHT22;27405;53.316;-6.294;2023-07-28T02:30:45;16.00;99.90
41720;DHT22;27405;53.316;-6.294;2023-07-28T02:33:11;16.00;99.90
41720;DHT22;27405;53.316;-6.294;2023-07-28T02:35:36;16.00;99.90
41720;DHT22;27405;53.316;-6.294;2023-07-28T02:38:02;15.90;99.90
41720;DHT22;27405;53.316;-6.294;2023-07-28T02:40:28;15.90;99.90
41720;DHT22;27405;53.316;-6.294;2023-07-28T02:42:53;15.90;99.90
41720;DHT22;27405;53.316;-6.294;2023-07-28T02:45:19;15.90;99.90
41720;DHT22;27405;53.316;-6.294;2023-07-28T02:47:45;15.90;99.90
41720;DHT22;27405;53.316;-6.294;2023-07-28T02:50:11;15.90;99.90
41720;DHT22;27405;53.316;-6.294;2023-07-28T02:52:36;15.90;99.90
41720;DHT22;27405;53.316;-6.294;2023-07-28T02:55:02;15.90;99.90
41720;DHT22;27405;53.316;-6.294;2023-07-28T02:57:28;15.90;99.90
41720;DHT22;27405;53.316;-6.294;2023-07-28T02:59:53;15.90;99.90
41720;DHT22;27405;53.316;-6.294;2023-07-28T03:02:19;15.90;99.90
41720;DHT22;27405;53.316;-6.294;2023-07-28T03:04:45;15.90;99.90
41720;DHT22;27405;53.316;-6.294;2023-07-28T03:07:10;15.90;99.90
41720;DHT22;27405;53.316;-6.294;2023-07-28T03:09:36;15.90;99.90
41720;DHT22;27405;53.316;-6.294;2023-07-28T03:12:02;15.90;99.90
41720;DHT22;27405;53.316;-6.294;2023-07-28T03:14:28;15.90;99.90
41720;DHT22;27405;53.316;-6.294;2023-07-28T03:16:54;15.90;99.90
41720;DHT22;27405;53.316;-6.294;2023-07-28T03:19:20;15.90;99.90
41720;DHT22;27405;53.316;-6.294;2023-07-28T03:21:46;15.90;99.90
41720;DHT22;27405;53.316;-6.294;2023-07-28T03:24:11;15.90;99.90
41720;DHT22;27405;53.316;-6.294;2023-07-28T03:26:37;15.90;99.90
41720;DHT22;27405;53.316;-6.294;2023-07-28T03:29:03;16.00;99.90
41720;DHT22;27405;53.316;-6.294;2023-07-28T03:31:28;15.90;99.90
41720;DHT22;27405;53.316;-6.294;2023-07-28T03:33:54;16.00;99.90
41720;DHT22;27405;53.316;-6.294;2023-07-28T03:36:20;16.00;99.90
41720;DHT22;27405;53.316;-6.294;2023-07-28T03:38:45;16.00;99.90
41720;DHT22;27405;53.316;-6.294;2023-07-28T03:41:12;16.00;99.90
41720;DHT22;27405;53.316;-6.294;2023-07-28T03:43:38;16.00;99.90
41720;DHT22;27405;53.316;-6.294;2023-07-28T03:46:04;16.00;99.90
41720;DHT22;27405;53.316;-6.294;2023-07-28T03:48:29;16.00;99.90
41720;DHT22;27405;53.316;-6.294;2023-07-28T03:50:55;16.00;99.90
41720;DHT22;27405;53.316;-6.294;2023-07-28T03:53:21;16.00;99.90
41720;DHT22;27405;53.316;-6.294;2023-07-28T03:55:46;16.10;99.90
41720;DHT22;27405;53.316;-6.294;2023-07-28T03:58:12;16.10;99.90
41720;DHT22;27405;53.316;-6.294;2023-07-28T04:00:38;16.10;99.90
41720;DHT22;27405;53.316;-6.294;2023-07-28T04:03:03;16.10;99.90
41720;DHT22;27405;53.316;-6.294;2023-07-28T04:05:29;16.20;99.90
41720;DHT22;27405;53.316;-6.294;2023-07-28T04:07:54;16.20;99.90
41720;DHT22;27405;53.316;-6.294;2023-07-28T04:10:20;16.20;99.90
41720;DHT22;27405;53.316;-6.294;2023-07-28T04:12:46;16.20;99.90
41720;DHT22;27405;53.316;-6.294;2023-07-28T04:15:12;16.20;99.90
41720;DHT22;27405;53.316;-6.294;2023-07-28T04:17:37;16.20;99.90
41720;DHT22;27405;53.316;-6.294;2023-07-28T04:20:03;16.20;99.90
41720;DHT22;27405;53.316;-6.294;2023-07-28T04:22:29;16.30;99.90
41720;DHT22;27405;53.316;-6.294;2023-07-28T04:24:55;16.20;99.90
41720;DHT22;27405;53.316;-6.294;2023-07-28T04:27:20;16.30;99.90
41720;DHT22;27405;53.316;-6.294;2023-07-28T04:29:46;16.30;99.90
41720;DHT22;27405;53.316;-6.294;2023-07-28T04:32:12;16.30;99.90
41720;DHT22;27405;53.316;-6.294;2023-07-28T04:34:38;16.30;99.90
41720;DHT22;27405;53.316;-6.294;2023-07-28T04:37:04;16.30;99.90
41720;DHT22;27405;53.316;-6.294;2023-07-28T04:39:29;16.30;99.90
41720;DHT22;27405;53.316;-6.294;2023-07-28T04:41:55;16.40;99.90
41720;DHT22;27405;53.316;-6.294;2023-07-28T04:44:20;16.40;99.90
41720;DHT22;27405;53.316;-6.294;2023-07-28T04:46:46;16.40;99.90
41720;DHT22;27405;53.316;-6.294;2023-07-28T04:49:13;16.40;99.90
41720;DHT22;27405;53.316;-6.294;2023-07-28T04:51:39;16.40;99.90
41720;DHT22;27405;53.316;-6.294;2023-07-28T04:54:04;16.50;99.90
41720;DHT22;27405;53.316;-6.294;2023-07-28T04:56:30;16.50;99.90
41720;DHT22;27405;53.316;-6.294;2023-07-28T04:58:56;16.50;99.90
41720;DHT22;27405;53.316;-6.294;2023-07-28T05:01:24;16.50;99.90
41720;DHT22;27405;53.316;-6.294;2023-07-28T05:03:49;16.50;99.90
41720;DHT22;27405;53.316;-6.294;2023-07-28T05:06:15;16.50;99.90
41720;DHT22;27405;53.316;-6.294;2023-07-28T05:08:41;16.50;99.90
41720;DHT22;27405;53.316;-6.294;2023-07-28T05:11:07;16.50;99.90
41720;DHT22;27405;53.316;-6.294;2023-07-28T05:13:32;16.60;99.90
41720;DHT22;27405;53.316;-6.294;2023-07-28T05:15:58;16.60;99.90
41720;DHT22;27405;53.316;-6.294;2023-07-28T05:18:25;16.60;99.90
41720;DHT22;27405;53.316;-6.294;2023-07-28T05:20:50;16.60;99.90
41720;DHT22;27405;53.316;-6.294;2023-07-28T05:23:16;16.60;99.90
41720;DHT22;27405;53.316;-6.294;2023-07-28T05:25:42;16.60;99.90
41720;DHT22;27405;53.316;-6.294;2023-07-28T05:28:07;16.60;99.90
41720;DHT22;27405;53.316;-6.294;2023-07-28T05:30:33;16.60;99.90
41720;DHT22;27405;53.316;-6.294;2023-07-28T05:32:59;16.50;99.90
41720;DHT22;27405;53.316;-6.294;2023-07-28T05:35:24;16.50;99.90
41720;DHT22;27405;53.316;-6.294;2023-07-28T05:37:50;16.40;99.90
41720;DHT22;27405;53.316;-6.294;2023-07-28T05:40:16;16.40;99.90
41720;DHT22;27405;53.316;-6.294;2023-07-28T05:42:41;16.40;99.90
41720;DHT22;27405;53.316;-6.294;2023-07-28T05:45:08;16.40;99.90
41720;DHT22;27405;53.316;-6.294;2023-07-28T05:47:33;16.40;99.90
41720;DHT22;27405;53.316;-6.294;2023-07-28T05:49:59;16.40;99.90
41720;DHT22;27405;53.316;-6.294;2023-07-28T05:52:25;16.40;99.90
41720;DHT22;27405;53.316;-6.294;2023-07-28T05:54:51;16.40;99.90
41720;DHT22;27405;53.316;-6.294;2023-07-28T05:57:17;16.40;99.90
41720;DHT22;27405;53.316;-6.294;2023-07-28T05:59:42;16.50;99.90
41720;DHT22;27405;53.316;-6.294;2023-07-28T06:02:08;16.50;99.90
41720;DHT22;27405;53.316;-6.294;2023-07-28T06:04:34;16.50;99.90
41720;DHT22;27405;53.316;-6.294;2023-07-28T06:06:59;16.50;99.90
41720;DHT22;27405;53.316;-6.294;2023-07-28T06:09:25;16.50;99.90
41720;DHT22;27405;53.316;-6.294;2023-07-28T06:11:50;16.50;99.90
41720;DHT22;27405;53.316;-6.294;2023-07-28T06:14:16;16.60;99.90
41720;DHT22;27405;53.316;-6.294;2023-07-28T06:16:42;16.60;99.90
41720;DHT22;27405;53.316;-6.294;2023-07-28T06:19:07;16.60;99.90
41720;DHT22;27405;53.316;-6.294;2023-07-28T06:21:33;16.60;99.90
41720;DHT22;27405;53.316;-6.294;2023-07-28T06:23:59;16.60;99.90
41720;DHT22;27405;53.316;-6.294;2023-07-28T06:26:25;16.60;99.90
41720;DHT22;27405;53.316;-6.294;2023-07-28T06:28:51;16.60;99.90
41720;DHT22;27405;53.316;-6.294;2023-07-28T06:31:16;16.60;99.90
41720;DHT22;27405;53.316;-6.294;2023-07-28T06:33:42;16.70;99.90
41720;DHT22;27405;53.316;-6.294;2023-07-28T06:36:08;16.70;99.90
41720;DHT22;27405;53.316;-6.294;2023-07-28T06:38:33;16.70;99.90
41720;DHT22;27405;53.316;-6.294;2023-07-28T06:40:59;16.70;99.90
41720;DHT22;27405;53.316;-6.294;2023-07-28T06:43:25;16.80;99.90
41720;DHT22;27405;53.316;-6.294;2023-07-28T06:45:53;16.80;99.90
41720;DHT22;27405;53.316;-6.294;2023-07-28T06:48:18;16.90;99.90
41720;DHT22;27405;53.316;-6.294;2023-07-28T06:50:44;16.90;99.90
41720;DHT22;27405;53.316;-6.294;2023-07-28T06:53:10;17.00;99.90
41720;DHT22;27405;53.316;-6.294;2023-07-28T06:55:35;17.10;99.90
41720;DHT22;27405;53.316;-6.294;2023-07-28T06:58:05;17.10;99.90
41720;DHT22;27405;53.316;-6.294;2023-07-28T07:00:31;17.20;99.90
41720;DHT22;27405;53.316;-6.294;2023-07-28T07:02:56;17.30;99.90
41720;DHT22;27405;53.316;-6.294;2023-07-28T07:05:22;17.40;99.90
41720;DHT22;27405;53.316;-6.294;2023-07-28T07:07:49;17.50;99.90
41720;DHT22;27405;53.316;-6.294;2023-07-28T07:10:15;17.70;99.90
41720;DHT22;27405;53.316;-6.294;2023-07-28T07:12:40;17.70;99.90
41720;DHT22;27405;53.316;-6.294;2023-07-28T07:15:06;17.80;99.90
41720;DHT22;27405;53.316;-6.294;2023-07-28T07:17:32;18.00;99.90
41720;DHT22;27405;53.316;-6.294;2023-07-28T07:19:59;18.10;99.90
41720;DHT22;27405;53.316;-6.294;2023-07-28T07:22:24;18.20;99.90
41720;DHT22;27405;53.316;-6.294;2023-07-28T07:24:50;18.30;99.90
41720;DHT22;27405;53.316;-6.294;2023-07-28T07:27:16;18.40;99.90
41720;DHT22;27405;53.316;-6.294;2023-07-28T07:29:41;18.40;99.90
41720;DHT22;27405;53.316;-6.294;2023-07-28T07:32:07;18.50;99.90
41720;DHT22;27405;53.316;-6.294;2023-07-28T07:34:35;18.50;99.90
41720;DHT22;27405;53.316;-6.294;2023-07-28T07:37:02;18.60;99.90
41720;DHT22;27405;53.316;-6.294;2023-07-28T07:39:28;18.60;99.80
41720;DHT22;27405;53.316;-6.294;2023-07-28T07:41:54;18.60;99.50
41720;DHT22;27405;53.316;-6.294;2023-07-28T07:44:20;18.60;99.40
41720;DHT22;27405;53.316;-6.294;2023-07-28T07:46:45;18.70;99.20
41720;DHT22;27405;53.316;-6.294;2023-07-28T07:49:11;18.70;99.00
41720;DHT22;27405;53.316;-6.294;2023-07-28T07:51:37;18.80;98.80
41720;DHT22;27405;53.316;-6.294;2023-07-28T07:54:02;18.80;98.70
41720;DHT22;27405;53.316;-6.294;2023-07-28T07:56:28;18.80;98.30
41720;DHT22;27405;53.316;-6.294;2023-07-28T07:58:54;18.80;98.30
41720;DHT22;27405;53.316;-6.294;2023-07-28T08:01:19;18.80;98.00
41720;DHT22;27405;53.316;-6.294;2023-07-28T08:03:45;18.80;97.80
41720;DHT22;27405;53.316;-6.294;2023-07-28T08:06:11;18.70;97.80
41720;DHT22;27405;53.316;-6.294;2023-07-28T08:08:38;18.70;97.80
41720;DHT22;27405;53.316;-6.294;2023-07-28T08:11:03;18.70;97.50
41720;DHT22;27405;53.316;-6.294;2023-07-28T08:13:29;18.70;97.30
41720;DHT22;27405;53.316;-6.294;2023-07-28T08:15:55;18.70;97.20
41720;DHT22;27405;53.316;-6.294;2023-07-28T08:18:21;18.80;97.20
41720;DHT22;27405;53.316;-6.294;2023-07-28T08:20:46;18.80;97.20
41720;DHT22;27405;53.316;-6.294;2023-07-28T08:23:12;18.90;97.20
41720;DHT22;27405;53.316;-6.294;2023-07-28T08:25:38;18.90;97.10
41720;DHT22;27405;53.316;-6.294;2023-07-28T08:28:04;18.90;97.00
41720;DHT22;27405;53.316;-6.294;2023-07-28T08:30:29;18.80;97.10
41720;DHT22;27405;53.316;-6.294;2023-07-28T08:32:57;18.70;97.20
41720;DHT22;27405;53.316;-6.294;2023-07-28T08:35:23;18.60;97.30
41720;DHT22;27405;53.316;-6.294;2023-07-28T08:37:49;18.60;97.40
41720;DHT22;27405;53.316;-6.294;2023-07-28T08:40:14;18.60;97.50
41720;DHT22;27405;53.316;-6.294;2023-07-28T08:42:40;18.70;97.60
41720;DHT22;27405;53.316;-6.294;2023-07-28T08:45:07;18.70;97.50
41720;DHT22;27405;53.316;-6.294;2023-07-28T08:47:36;18.70;97.50
41720;DHT22;27405;53.316;-6.294;2023-07-28T08:50:02;18.70;97.60
41720;DHT22;27405;53.316;-6.294;2023-07-28T08:52:28;18.80;97.60
41720;DHT22;27405;53.316;-6.294;2023-07-28T08:54:54;18.80;97.50
41720;DHT22;27405;53.316;-6.294;2023-07-28T08:57:20;18.80;97.30
41720;DHT22;27405;53.316;-6.294;2023-07-28T08:59:46;18.80;97.40
41720;DHT22;27405;53.316;-6.294;2023-07-28T09:02:15;18.80;97.60
41720;DHT22;27405;53.316;-6.294;2023-07-28T09:04:42;18.90;97.80
41720;DHT22;27405;53.316;-6.294;2023-07-28T09:07:08;19.10;97.70
41720;DHT22;27405;53.316;-6.294;2023-07-28T09:09:35;19.30;97.50
41720;DHT22;27405;53.316;-6.294;2023-07-28T09:12:02;19.40;97.20
41720;DHT22;27405;53.316;-6.294;2023-07-28T09:14:29;19.50;97.10
41720;DHT22;27405;53.316;-6.294;2023-07-28T09:16:55;19.60;96.90
41720;DHT22;27405;53.316;-6.294;2023-07-28T09:19:21;19.60;96.90
41720;DHT22;27405;53.316;-6.294;2023-07-28T09:21:58;19.70;96.90
41720;DHT22;27405;53.316;-6.294;2023-07-28T09:24:33;19.70;96.70
41720;DHT22;27405;53.316;-6.294;2023-07-28T09:27:00;19.70;96.90
41720;DHT22;27405;53.316;-6.294;2023-07-28T09:29:26;19.80;96.90
41720;DHT22;27405;53.316;-6.294;2023-07-28T09:32:03;19.80;96.70
41720;DHT22;27405;53.316;-6.294;2023-07-28T09:34:29;19.80;96.60
41720;DHT22;27405;53.316;-6.294;2023-07-28T09:36:57;19.80;96.70
41720;DHT22;27405;53.316;-6.294;2023-07-28T09:39:23;19.90;96.90
41720;DHT22;27405;53.316;-6.294;2023-07-28T09:41:49;20.00;96.80
41720;DHT22;27405;53.316;-6.294;2023-07-28T09:44:15;20.10;96.80
41720;DHT22;27405;53.316;-6.294;2023-07-28T09:46:55;20.10;96.60
41720;DHT22;27405;53.316;-6.294;2023-07-28T09:49:34;20.10;96.60
41720;DHT22;27405;53.316;-6.294;2023-07-28T09:52:05;20.10;96.80
41720;DHT22;27405;53.316;-6.294;2023-07-28T09:54:34;20.10;96.70
41720;DHT22;27405;53.316;-6.294;2023-07-28T09:57:04;20.20;96.70
41720;DHT22;27405;53.316;-6.294;2023-07-28T09:59:41;20.30;96.70
41720;DHT22;27405;53.316;-6.294;2023-07-28T10:02:08;20.30;96.70
41720;DHT22;27405;53.316;-6.294;2023-07-28T10:04:34;20.40;96.70
41720;DHT22;27405;53.316;-6.294;2023-07-28T10:07:02;20.40;96.80
41720;DHT22;27405;53.316;-6.294;2023-07-28T10:09:29;20.40;96.70
41720;DHT22;27405;53.316;-6.294;2023-07-28T10:11:56;20.30;96.80
41720;DHT22;27405;53.316;-6.294;2023-07-28T10:14:29;20.20;96.80
41720;DHT22;27405;53.316;-6.294;2023-07-28T10:16:57;20.10;97.00
41720;DHT22;27405;53.316;-6.294;2023-07-28T10:19:28;20.00;96.90
41720;DHT22;27405;53.316;-6.294;2023-07-28T10:22:07;19.90;96.80
41720;DHT22;27405;53.316;-6.294;2023-07-28T10:24:52;19.80;96.80
41720;DHT22;27405;53.316;-6.294;2023-07-28T10:30:00;19.60;97.20
41720;DHT22;27405;53.316;-6.294;2023-07-28T10:32:40;19.50;97.60
41720;DHT22;27405;53.316;-6.294;2023-07-28T10:37:49;19.60;97.40
41720;DHT22;27405;53.316;-6.294;2023-07-28T10:42:54;19.70;97.30
41720;DHT22;27405;53.316;-6.294;2023-07-28T10:45:21;19.80;97.30
41720;DHT22;27405;53.316;-6.294;2023-07-28T10:47:48;19.80;96.90
41720;DHT22;27405;53.316;-6.294;2023-07-28T10:50:14;19.90;96.70
41720;DHT22;27405;53.316;-6.294;2023-07-28T10:52:41;19.90;96.70
41720;DHT22;27405;53.316;-6.294;2023-07-28T10:55:17;19.90;96.60
41720;DHT22;27405;53.316;-6.294;2023-07-28T10:57:44;20.00;96.30
41720;DHT22;27405;53.316;-6.294;2023-07-28T11:00:12;20.00;95.80
41720;DHT22;27405;53.316;-6.294;2023-07-28T11:02:42;20.10;95.30
41720;DHT22;27405;53.316;-6.294;2023-07-28T11:05:13;20.10;95.10
41720;DHT22;27405;53.316;-6.294;2023-07-28T11:07:43;20.20;94.50
41720;DHT22;27405;53.316;-6.294;2023-07-28T11:10:15;20.30;94.10
41720;DHT22;27405;53.316;-6.294;2023-07-28T11:12:45;20.40;93.80
41720;DHT22;27405;53.316;-6.294;2023-07-28T11:15:12;20.40;93.70
41720;DHT22;27405;53.316;-6.294;2023-07-28T11:17:39;20.60;93.80
41720;DHT22;27405;53.316;-6.294;2023-07-28T11:20:26;20.80;93.50
41720;DHT22;27405;53.316;-6.294;2023-07-28T11:25:20;21.40;93.70
41720;DHT22;27405;53.316;-6.294;2023-07-28T11:27:47;21.70;92.60
41720;DHT22;27405;53.316;-6.294;2023-07-28T11:30:14;21.90;92.10
41720;DHT22;27405;53.316;-6.294;2023-07-28T11:32:43;22.10;91.60
41720;DHT22;27405;53.316;-6.294;2023-07-28T11:35:09;22.20;91.20
41720;DHT22;27405;53.316;-6.294;2023-07-28T11:37:36;22.30;91.60
41720;DHT22;27405;53.316;-6.294;2023-07-28T11:40:03;22.30;90.90
41720;DHT22;27405;53.316;-6.294;2023-07-28T11:42:39;22.30;90.80
41720;DHT22;27405;53.316;-6.294;2023-07-28T11:45:07;22.40;90.50
41720;DHT22;27405;53.316;-6.294;2023-07-28T11:47:33;22.50;90.20
41720;DHT22;27405;53.316;-6.294;2023-07-28T11:49:59;22.60;90.20
41720;DHT22;27405;53.316;-6.294;2023-07-28T11:52:33;22.70;90.00
41720;DHT22;27405;53.316;-6.294;2023-07-28T11:55:00;22.80;89.10
41720;DHT22;27405;53.316;-6.294;2023-07-28T11:57:27;22.70;88.80
41720;DHT22;27405;53.316;-6.294;2023-07-28T11:59:56;22.60;88.00
41720;DHT22;27405;53.316;-6.294;2023-07-28T12:02:30;22.50;88.20
41720;DHT22;27405;53.316;-6.294;2023-07-28T12:04:57;22.50;87.90
41720;DHT22;27405;53.316;-6.294;2023-07-28T12:07:31;22.50;88.60
41720;DHT22;27405;53.316;-6.294;2023-07-28T12:09:59;22.60;88.60
41720;DHT22;27405;53.316;-6.294;2023-07-28T12:12:28;22.70;88.70
41720;DHT22;27405;53.316;-6.294;2023-07-28T12:14:55;22.90;88.90
41720;DHT22;27405;53.316;-6.294;2023-07-28T12:17:23;23.00;88.00
41720;DHT22;27405;53.316;-6.294;2023-07-28T12:20:06;23.10;88.00
41720;DHT22;27405;53.316;-6.294;2023-07-28T12:22:41;23.20;87.80
41720;DHT22;27405;53.316;-6.294;2023-07-28T12:25:08;23.40;87.10
41720;DHT22;27405;53.316;-6.294;2023-07-28T12:27:34;23.60;86.90
41720;DHT22;27405;53.316;-6.294;2023-07-28T12:30:00;23.70;85.80
41720;DHT22;27405;53.316;-6.294;2023-07-28T12:32:27;23.80;85.60
41720;DHT22;27405;53.316;-6.294;2023-07-28T12:34:52;24.00;85.10
41720;DHT22;27405;53.316;-6.294;2023-07-28T12:37:19;24.10;84.40
41720;DHT22;27405;53.316;-6.294;2023-07-28T12:39:45;24.10;83.90
41720;DHT22;27405;53.316;-6.294;2023-07-28T12:42:11;24.00;84.40
41720;DHT22;27405;53.316;-6.294;2023-07-28T12:44:38;23.90;84.20
41720;DHT22;27405;53.316;-6.294;2023-07-28T12:47:04;23.80;84.00
41720;DHT22;27405;53.316;-6.294;2023-07-28T12:49:31;23.80;83.80
41720;DHT22;27405;53.316;-6.294;2023-07-28T12:52:00;23.80;83.80
41720;DHT22;27405;53.316;-6.294;2023-07-28T12:54:26;23.90;83.60
41720;DHT22;27405;53.316;-6.294;2023-07-28T12:56:55;24.00;83.20
41720;DHT22;27405;53.316;-6.294;2023-07-28T12:59:21;24.00;83.50
41720;DHT22;27405;53.316;-6.294;2023-07-28T13:01:47;24.10;84.50
41720;DHT22;27405;53.316;-6.294;2023-07-28T13:04:12;24.20;83.80
41720;DHT22;27405;53.316;-6.294;2023-07-28T13:06:38;24.20;83.10
41720;DHT22;27405;53.316;-6.294;2023-07-28T13:09:06;24.20;83.40
41720;DHT22;27405;53.316;-6.294;2023-07-28T13:11:33;24.20;83.20
41720;DHT22;27405;53.316;-6.294;2023-07-28T13:13:59;24.20;82.70
41720;DHT22;27405;53.316;-6.294;2023-07-28T13:16:25;24.10;82.50
41720;DHT22;27405;53.316;-6.294;2023-07-28T13:18:51;23.90;83.20
41720;DHT22;27405;53.316;-6.294;2023-07-28T13:21:17;23.90;84.00
41720;DHT22;27405;53.316;-6.294;2023-07-28T13:23:43;24.00;83.20
41720;DHT22;27405;53.316;-6.294;2023-07-28T13:26:08;24.10;82.70
41720;DHT22;27405;53.316;-6.294;2023-07-28T13:28:34;24.10;82.20
41720;DHT22;27405;53.316;-6.294;2023-07-28T13:31:03;24.10;82.30
41720;DHT22;27405;53.316;-6.294;2023-07-28T13:33:30;24.20;82.40
41720;DHT22;27405;53.316;-6.294;2023-07-28T13:35:56;24.20;82.20
41720;DHT22;27405;53.316;-6.294;2023-07-28T13:38:22;24.20;81.90
41720;DHT22;27405;53.316;-6.294;2023-07-28T13:40:48;24.20;81.80
41720;DHT22;27405;53.316;-6.294;2023-07-28T13:43:14;24.10;81.70
41720;DHT22;27405;53.316;-6.294;2023-07-28T13:45:39;24.00;81.60
41720;DHT22;27405;53.316;-6.294;2023-07-28T13:48:05;23.80;82.10
41720;DHT22;27405;53.316;-6.294;2023-07-28T13:50:31;23.60;83.00
41720;DHT22;27405;53.316;-6.294;2023-07-28T13:52:56;23.50;83.40
41720;DHT22;27405;53.316;-6.294;2023-07-28T13:55:22;23.60;83.40
41720;DHT22;27405;53.316;-6.294;2023-07-28T13:57:48;23.70;82.90
41720;DHT22;27405;53.316;-6.294;2023-07-28T14:00:14;23.80;83.10
41720;DHT22;27405;53.316;-6.294;2023-07-28T14:02:40;23.90;82.40
41720;DHT22;27405;53.316;-6.294;2023-07-28T14:05:07;24.00;82.30
41720;DHT22;27405;53.316;-6.294;2023-07-28T14:07:33;24.00;82.20
41720;DHT22;27405;53.316;-6.294;2023-07-28T14:10:02;24.10;82.70
41720;DHT22;27405;53.316;-6.294;2023-07-28T14:12:28;24.10;82.10
41720;DHT22;27405;53.316;-6.294;2023-07-28T14:14:54;24.00;81.60
41720;DHT22;27405;53.316;-6.294;2023-07-28T14:17:20;24.00;81.40
41720;DHT22;27405;53.316;-6.294;2023-07-28T14:19:45;23.90;81.50
41720;DHT22;27405;53.316;-6.294;2023-07-28T14:22:12;23.80;81.50
41720;DHT22;27405;53.316;-6.294;2023-07-28T14:24:37;23.80;82.00
41720;DHT22;27405;53.316;-6.294;2023-07-28T14:27:04;23.70;82.00
41720;DHT22;27405;53.316;-6.294;2023-07-28T14:29:30;23.60;81.90
41720;DHT22;27405;53.316;-6.294;2023-07-28T14:31:56;23.60;82.30
41720;DHT22;27405;53.316;-6.294;2023-07-28T14:34:22;23.60;82.50
41720;DHT22;27405;53.316;-6.294;2023-07-28T14:36:48;23.60;82.10
41720;DHT22;27405;53.316;-6.294;2023-07-28T14:39:13;23.60;82.20
41720;DHT22;27405;53.316;-6.294;2023-07-28T14:41:39;23.60;82.70
41720;DHT22;27405;53.316;-6.294;2023-07-28T14:44:05;23.80;82.70
41720;DHT22;27405;53.316;-6.294;2023-07-28T14:46:30;24.10;82.70
41720;DHT22;27405;53.316;-6.294;2023-07-28T14:48:56;24.30;81.60
41720;DHT22;27405;53.316;-6.294;2023-07-28T14:51:22;24.40;80.70
41720;DHT22;27405;53.316;-6.294;2023-07-28T14:53:48;24.50;80.00
41720;DHT22;27405;53.316;-6.294;2023-07-28T14:56:15;24.60;79.80
41720;DHT22;27405;53.316;-6.294;2023-07-28T14:58:42;24.50;79.90
41720;DHT22;27405;53.316;-6.294;2023-07-28T15:01:11;24.40;80.20
41720;DHT22;27405;53.316;-6.294;2023-07-28T15:03:37;24.10;80.80
41720;DHT22;27405;53.316;-6.294;2023-07-28T15:06:03;23.80;81.00
41720;DHT22;27405;53.316;-6.294;2023-07-28T15:08:29;23.60;81.70
41720;DHT22;27405;53.316;-6.294;2023-07-28T15:10:56;23.50;82.70
41720;DHT22;27405;53.316;-6.294;2023-07-28T15:13:22;23.60;83.10
41720;DHT22;27405;53.316;-6.294;2023-07-28T15:15:48;23.80;82.50
41720;DHT22;27405;53.316;-6.294;2023-07-28T15:18:14;23.80;82.10
41720;DHT22;27405;53.316;-6.294;2023-07-28T15:20:41;23.80;82.00
41720;DHT22;27405;53.316;-6.294;2023-07-28T15:23:06;23.80;82.10
41720;DHT22;27405;53.316;-6.294;2023-07-28T15:25:32;23.70;81.80
41720;DHT22;27405;53.316;-6.294;2023-07-28T15:27:58;23.60;81.40